• Join FlightAware (Why Join?)
  • Login
  • US Flag 
Rudolph Flight #1: Arrived! 
06:00AM EST


 

Airport Tracker/Info


-or-


 

Live Flight TrackerFlight Track Log ✈ DAL6225 ✈ 24-Apr-2013 ✈ KMSN - KLGA

Flight Track Log - Related Links

Times and Time Zones

All times are in EDT time to prevent confusion due to time zone crossing. See the DAL6225 flight status page for this flight to view local times or setup timezone preferences in your user account.

Time Position Orientation Groundspeed Altitude Reporting Facility
EDT Latitude Longitude Course Direction KTS MPH feet Rate Location/Type
08:29AM 43.1797 -89.2731 90° East 236 272 3,700  Level Chicago Center
08:30AM 43.1717 -89.1772 97° East 252 290 6,600 2,640 Climbing Chicago Center
08:31AM 43.1669 -89.0656 93° East 284 327 9,200 2,460 Climbing Chicago Center
08:32AM 43.1608 -88.9483 94° East 301 346 11,700 2,040 Climbing Chicago Center
08:33AM 43.1522 -88.8153 95° East 345 397 13,400 1,560 Climbing Chicago Center
08:34AM 43.1408 -88.6478 95° East 382 440 14,900 1,260 Climbing Chicago Center
08:35AM 43.1167 -88.4123 90° East  Level FlightAware Approximate
08:35AM 43.1306 -88.5014 95° East 389 448 16,100  Level Chicago Center
08:36AM 43.1214 -88.3511 95° East 396 456 17,000 780 Climbing Chicago Center
08:37AM 43.1214 -88.1919 90° East 418 481 17,800 1,140 Climbing Chicago Center
08:39AM 43.1292 -88.0317 86° East 423 487 19,400 1,620 Climbing Chicago Center
08:40AM 43.1386 -87.8350 86° East 444 511 21,200 1,440 Climbing Chicago Center
08:41AM 43.1469 -87.6608 86° East 459 528 22,400 1,140 Climbing Chicago Center
08:42AM 43.1539 -87.4775 87° East 480 552 23,600 1,260 Climbing Chicago Center
08:43AM 43.1633 -87.2944 86° East 494 568 25,100 1,380 Climbing Chicago Center
08:44AM 43.2061 -87.1086 72° East 513 590 26,500 1,020 Climbing Chicago Center
08:45AM 43.2450 -86.9169 74° East 521 600 27,300 720 Climbing Chicago Center
08:46AM 43.2947 -86.6753 74° East 546 628 28,100 780 Climbing Chicago Center
08:47AM 43.3328 -86.4686 76° East 555 639 29,000 900 Climbing Chicago Center
08:48AM 43.3369 -86.2642 88° East 532 612 30,000 960 Climbing Chicago Center
08:49AM 43.3314 -86.0581 92° East 533 613 31,000 960 Climbing Chicago Center
08:50AM 43.3283 -85.8525 91° East 532 612 32,000 960 Climbing Chicago Center
08:51AM 43.3269 -85.6483 90° East 530 610 33,000 1,020 Climbing Chicago Center
08:52AM 43.3250 -85.4456 91° East 529 609 34,100 960 Climbing Chicago Center
08:53AM 43.3222 -85.2467 91° East 522 601 35,000 360 Climbing Chicago Center
08:54AM 43.3158 -85.0006 92° East 518 596 35,000  Level Cleveland Center
08:55AM 43.3128 -84.8033 91° East 518 596 35,000  Level Cleveland Center
08:56AM 43.3072 -84.6033 92° East 518 596 35,000  Level Cleveland Center
08:57AM 43.3033 -84.4089 92° East 518 596 35,000  Level Cleveland Center
08:58AM 43.2992 -84.2175 92° East 518 596 35,000  Level Cleveland Center
08:59AM 43.2947 -84.0206 92° East 513 590 35,000  Level Cleveland Center
09:00AM 43.2897 -83.8347 92° East 506 582 35,000  Level Cleveland Center
09:01AM 43.2844 -83.6433 92° East 501 577 35,000  Level Cleveland Center
09:02AM 43.2792 -83.4464 92° East 501 577 35,000  Level Cleveland Center
09:03AM 43.2733 -83.2522 92° East 501 577 35,000  Level Cleveland Center
09:04AM 43.2672 -83.0608 92° East 501 577 35,000  Level Cleveland Center
09:05AM 43.2586 -82.8694 93° East 501 577 35,000  Level Cleveland Center
09:06AM 43.2519 -82.6753 93° East 501 577 35,000  Level Cleveland Center
09:07AM 43.2408 -82.4783 94° East 501 577 35,000  Level Cleveland Center
09:08AM 43.2269 -82.2869 96° East 501 577 35,000  Level Cleveland Center
09:09AM 43.2150 -82.0931 95° East 501 577 35,000  Level Cleveland Center
09:10AM 43.2000 -81.9000 96° East 510 587 35,000  Level Toronto Center
09:11AM 43.1833 -81.7167 97° East 510 587 35,000  Level Toronto Center
09:12AM 43.1667 -81.5000 96° East 510 587 35,000  Level Toronto Center
09:13AM 43.1500 -81.3167 97° East 510 587 35,000  Level Toronto Center
09:14AM 43.1333 -81.1333 97° East 510 587 35,000  Level Toronto Center
09:15AM 43.1167 -80.9333 96° East 510 587 35,000  Level Toronto Center
09:16AM 43.1167 -80.7500 90° East 510 587 35,000  Level Toronto Center
09:17AM 43.1000 -80.5500 96° East 510 587 35,000  Level Toronto Center
09:18AM 43.0833 -80.3667 97° East 510 587 35,000  Level Toronto Center
09:19AM 43.0667 -80.1500 96° East 510 587 35,000  Level Toronto Center
09:20AM 43.0500 -79.9833 98° East 510 587 35,000  Level Toronto Center
09:21AM 43.0333 -79.7667 96° East 510 587 35,000  Level Toronto Center
09:22AM 43.0167 -79.5833 97° East 510 587 35,000  Level Toronto Center
09:23AM 42.9833 -79.3833 103° East 510 587 35,000  Level Toronto Center
09:24AM 42.9667 -79.2000 97° East 520 598 35,000  Level Toronto Center
09:25AM 42.9500 -79.0000 96° East 520 598 35,000  Level Toronto Center
09:26AM 42.9333 -78.8167 97° East 520 598 35,000  Level Toronto Center
09:27AM 42.9369 -78.7144 87° East 516 594 35,000  Level Cleveland Center
09:28AM 42.9169 -78.5222 98° East 511 588 35,000  Level Cleveland Center
09:29AM 42.8969 -78.3331 98° East 511 588 35,000  Level Cleveland Center
09:30AM 42.8783 -78.1439 98° East 505 581 35,000  Level Cleveland Center
09:31AM 42.8597 -77.9575 98° East 500 575 35,000  Level Cleveland Center
09:32AM 42.8414 -77.7942 99° East 500 575 35,000  Level Cleveland Center
09:33AM 42.8200 -77.6108 99° East 495 570 35,000  Level Cleveland Center
09:34AM 42.7775 -77.3150 101° East 497 572 35,000  Level Boston Center
09:35AM 42.7514 -77.1375 101° East 486 559 35,000  Level Boston Center
09:36AM 42.7256 -76.9572 101° East 481 554 35,000  Level Boston Center
09:37AM 42.7011 -76.7803 101° East 481 554 35,000  Level Boston Center
09:38AM 42.6744 -76.6003 101° East 476 548 35,000  Level Boston Center
09:39AM 42.6472 -76.4264 102° East 476 548 35,000  Level Boston Center
09:40AM 42.6186 -76.2325 101° East 476 548 35,000 -540 Level Boston Center
09:41AM 42.5911 -76.0475 101° East 476 548 34,000 -1,260 Descending Boston Center
09:42AM 42.5633 -75.8653 102° East 481 554 32,500 -1,500 Descending Boston Center
09:43AM 42.5356 -75.6833 102° East 486 559 31,000 -1,500 Descending Boston Center
09:44AM 42.5089 -75.5131 102° East 481 554 29,500 -1,500 Descending Boston Center
09:45AM 42.4822 -75.3428 102° East 465 535 28,000 -1,500 Descending Boston Center
09:46AM 42.4442 -75.1861 108° East 454 522 26,500 -1,500 Descending Boston Center
09:47AM 42.3917 -75.0322 115° Southeast 447 514 25,000 -1,380 Descending Boston Center
09:48AM 42.3364 -74.8864 117° Southeast 435 501 23,800 -1,140 Descending Boston Center
09:49AM 42.2850 -74.7525 117° Southeast 422 486 22,800 -1,020 Descending Boston Center
09:50AM 42.2356 -74.6189 117° Southeast 401 461 21,800 -1,320 Descending Boston Center
09:51AM 42.1839 -74.4883 118° Southeast 394 453 20,200 -1,560 Descending Boston Center
09:52AM 42.1364 -74.3522 115° Southeast 394 453 18,700 -1,020 Descending Boston Center
09:53AM 42.0881 -74.2361 119° Southeast 400 460 18,000 -780 Descending Boston Center
09:54AM 42.0050 -74.0914 128° Southeast 373 429 17,000 -540 Descending Boston Center
09:55AM 41.9181 -74.0500 160° South 359 413 17,000  Level Boston Center
09:56AM 41.8122 -74.0028 162° South 364 419 17,000 -300 Level Boston Center
09:57AM 41.7150 -73.9586 161° South 369 425 16,400 -1,620 Descending Boston Center
09:58AM 41.6197 -73.9175 162° South 364 419 13,800 -2,400 Descending Boston Center
09:59AM 41.5283 -73.8792 163° South 353 406 11,600 -1,920 Descending Boston Center
10:01AM 41.4333 -73.8333 160° South 308 354 9,600 -1,200 Descending New York TRACON
10:01AM 41.3500 -73.8000 163° South 288 331 9,100 -840 Descending New York TRACON
10:02AM 41.2833 -73.7500 151° Southeast 301 346 8,100 -1,080 Descending New York TRACON
10:03AM 41.2167 -73.6833 143° Southeast 299 344 7,000 -900 Descending New York TRACON
10:04AM 41.1667 -73.6333 143° Southeast 263 303 6,300 -780 Descending New York TRACON
10:05AM 41.1167 -73.6000 153° Southeast 211 243 5,600 -1,020 Descending New York TRACON
10:06AM 41.0667 -73.6333 207° Southwest 189 217 4,400 -840 Descending New York TRACON
10:07AM 41.0167 -73.6667 207° Southwest 173 199 4,000 -300 Descending New York TRACON
10:08AM 40.9833 -73.7000 217° Southwest 173 199 3,900 -540 Descending New York TRACON
10:09AM 40.9500 -73.7333 217° Southwest 159 183 3,000 -720 Descending New York TRACON
10:10AM 40.9167 -73.7667 217° Southwest 161 185 2,500 -480 Descending New York TRACON
10:11AM 40.8667 -73.8000 207° Southwest 169 194 2,100 -660 Descending New York TRACON
10:12AM 40.8333 -73.8333 217° Southwest 150 173 1,300 -840 Descending New York TRACON